Time;durP1;ratioP1;P1;durP2;ratioP2;P2;SDS_P1;SDS_P2;PMS_P1;PMS_P2;Temp;Humidity;BMP_temperature;BMP_pressure;BME280_temperature;BME280_humidity;BME280_pressure;Samples;Min_cycle;Max_cycle;Signal;HPM_P1;HPM_P2
2023/01/12 00:01:37;;;;;;;7.40;2.73;;;;;;;;;;5084702;28;20772;-78
2023/01/12 00:04:03;;;;;;;3.30;1.70;;;;;;;;;;5107054;28;20431;-77
2023/01/12 00:06:31;;;;;;;7.70;1.53;;;;;;;;;;5083373;28;20428;-77
2023/01/12 00:08:57;;;;;;;8.30;1.77;;;;;;;;;;5066438;28;20404;-78
2023/01/12 00:11:23;;;;;;;10.20;1.97;;;;;;;;;;5098329;28;20922;-78
2023/01/12 00:13:49;;;;;;;6.70;1.45;;;;;;;;;;5100740;28;20473;-76
2023/01/12 00:19:02;;;;;;;1.30;0.97;;;;;;;;;;5075097;28;20868;-78
2023/01/12 00:21:30;;;;;;;3.20;2.27;;;;;;;;;;5097421;28;20980;-77
2023/01/12 00:23:56;;;;;;;0.63;0.63;;;;;;;;;;5089412;28;20434;-78
2023/01/12 00:26:22;;;;;;;3.07;1.40;;;;;;;;;;5093770;28;20511;-77
2023/01/12 00:28:48;;;;;;;5.43;1.83;;;;;;;;;;5086939;28;20413;-78
2023/01/12 00:31:14;;;;;;;8.07;1.87;;;;;;;;;;5103451;28;20445;-78
2023/01/12 00:33:40;;;;;;;4.07;1.40;;;;;;;;;;5106871;28;20419;-78
2023/01/12 00:36:07;;;;;;;5.97;1.47;;;;;;;;;;5104778;28;20419;-78
2023/01/12 00:38:35;;;;;;;4.50;1.40;;;;;;;;;;5106615;28;20856;-78
2023/01/12 00:46:53;;;;;;;3.23;1.53;;;;;;;;;;5086592;28;20446;-77
2023/01/12 00:49:19;;;;;;;3.60;1.93;;;;;;;;;;5104887;28;21022;-78
2023/01/12 00:51:45;;;;;;;6.37;1.17;;;;;;;;;;5094368;28;20498;-78
2023/01/12 00:54:11;;;;;;;3.43;2.67;;;;;;;;;;5065608;28;20909;-77
2023/01/12 00:56:38;;;;;;;4.20;2.20;;;;;;;;;;5084892;28;20430;-78
2023/01/12 00:59:04;;;;;;;6.17;2.00;;;;;;;;;;5105967;28;20459;-78
2023/01/12 01:01:30;;;;;;;2.43;1.07;;;;;;;;;;5091550;28;20436;-78
2023/01/12 01:03:56;;;;;;;10.43;2.03;;;;;;;;;;5071743;28;20943;-78
2023/01/12 01:06:23;;;;;;;4.17;2.37;;;;;;;;;;5083119;28;20450;-77
2023/01/12 01:08:49;;;;;;;2.23;2.10;;;;;;;;;;5087293;28;20432;-76
2023/01/12 01:11:15;;;;;;;1.50;1.40;;;;;;;;;;5077982;28;20826;-77
2023/01/12 01:13:45;;;;;;;4.87;1.87;;;;;;;;;;5092350;28;20537;-78
2023/01/12 01:16:12;;;;;;;4.93;1.70;;;;;;;;;;5089994;28;20446;-78
2023/01/12 01:18:38;;;;;;;7.47;2.40;;;;;;;;;;5096883;28;20553;-78
2023/01/12 01:21:05;;;;;;;3.10;1.93;;;;;;;;;;5082493;28;20749;-78
2023/01/12 01:23:34;;;;;;;4.47;1.90;;;;;;;;;;5075478;28;20448;-78
2023/01/12 01:26:07;;;;;;;3.70;1.17;;;;;;;;;;5085214;28;20432;-77
2023/01/12 01:28:33;;;;;;;9.23;2.53;;;;;;;;;;5092641;28;20412;-78
2023/01/12 01:31:06;;;;;;;4.40;1.70;;;;;;;;;;5082100;28;20427;-77
2023/01/12 01:33:32;;;;;;;1.33;1.23;;;;;;;;;;5083968;28;20520;-78
2023/01/12 01:35:58;;;;;;;3.80;1.90;;;;;;;;;;5074017;28;20529;-78
2023/01/12 01:38:24;;;;;;;7.20;2.30;;;;;;;;;;5072845;28;20534;-78
2023/01/12 01:40:50;;;;;;;5.20;2.30;;;;;;;;;;5086582;28;20996;-78
2023/01/12 01:43:18;;;;;;;9.73;1.40;;;;;;;;;;5084284;28;20676;-78
2023/01/12 01:45:45;;;;;;;1.40;1.40;;;;;;;;;;5089052;28;20682;-78
2023/01/12 01:48:12;;;;;;;5.23;2.13;;;;;;;;;;5075897;28;20433;-78
2023/01/12 01:50:40;;;;;;;5.93;2.70;;;;;;;;;;5095423;28;20456;-77
2023/01/12 01:53:13;;;;;;;2.87;2.13;;;;;;;;;;5086604;28;20429;-77
2023/01/12 01:55:47;;;;;;;2.30;1.53;;;;;;;;;;5077396;28;20447;-77
2023/01/12 01:58:15;;;;;;;4.03;2.40;;;;;;;;;;5074445;28;20482;-78
2023/01/12 02:00:42;;;;;;;1.60;1.60;;;;;;;;;;5088422;28;20949;-77
2023/01/12 02:03:09;;;;;;;3.20;2.17;;;;;;;;;;5068431;28;20848;-78
2023/01/12 02:05:36;;;;;;;10.30;1.93;;;;;;;;;;5080377;28;20433;-77
2023/01/12 02:08:13;;;;;;;7.50;3.00;;;;;;;;;;5086388;28;20433;-77
2023/01/12 02:10:39;;;;;;;13.33;2.87;;;;;;;;;;5072532;28;20523;-76
2023/01/12 02:16:19;;;;;;;1.37;1.27;;;;;;;;;;5086436;28;20990;-77
2023/01/12 02:19:00;;;;;;;7.38;2.08;;;;;;;;;;5073534;28;20471;-78
2023/01/12 02:21:52;;;;;;;3.40;1.87;;;;;;;;;;5079314;28;20847;-78
2023/01/12 02:24:22;;;;;;;3.20;1.67;;;;;;;;;;5076098;28;20443;-78
2023/01/12 02:29:51;;;;;;;4.00;2.03;;;;;;;;;;5084851;28;20422;-78
2023/01/12 02:32:26;;;;;;;8.13;2.97;;;;;;;;;;5085162;28;20824;-77
2023/01/12 02:34:53;;;;;;;3.13;2.50;;;;;;;;;;5084939;28;20480;-78
2023/01/12 02:37:21;;;;;;;3.93;2.43;;;;;;;;;;5093584;28;20443;-78
2023/01/12 02:40:06;;;;;;;4.23;2.13;;;;;;;;;;5102488;28;20827;-77
2023/01/12 02:42:40;;;;;;;4.50;2.13;;;;;;;;;;5082702;28;20842;-77
2023/01/12 02:45:18;;;;;;;12.93;2.20;;;;;;;;;;5083636;28;20437;-78
2023/01/12 02:48:03;;;;;;;5.73;2.30;;;;;;;;;;5072725;28;20485;-78
2023/01/12 02:50:49;;;;;;;6.00;2.47;;;;;;;;;;5082118;28;20505;-77
2023/01/12 02:53:24;;;;;;;4.60;2.30;;;;;;;;;;5079836;28;20736;-78
2023/01/12 02:55:51;;;;;;;7.50;1.30;;;;;;;;;;5082953;28;20462;-77
2023/01/12 02:58:22;;;;;;;7.60;4.53;;;;;;;;;;5079060;28;20501;-78
2023/01/12 03:00:49;;;;;;;1.80;1.20;;;;;;;;;;5089383;28;20937;-78
2023/01/12 03:03:16;;;;;;;6.20;2.70;;;;;;;;;;5074938;28;20436;-78
2023/01/12 03:05:43;;;;;;;4.13;2.63;;;;;;;;;;5082666;28;20446;-78
2023/01/12 03:08:14;;;;;;;6.23;1.83;;;;;;;;;;5079546;28;20430;-78
2023/01/12 03:11:02;;;;;;;2.40;2.20;;;;;;;;;;5069662;28;20956;-79
2023/01/12 03:13:29;;;;;;;10.27;1.83;;;;;;;;;;5097714;28;20943;-78
2023/01/12 03:15:56;;;;;;;8.53;2.33;;;;;;;;;;5099225;28;20484;-78
2023/01/12 03:18:27;;;;;;;6.43;2.27;;;;;;;;;;5099690;28;20459;-78
2023/01/12 03:20:55;;;;;;;6.30;3.03;;;;;;;;;;5072250;28;20455;-78
2023/01/12 03:23:24;;;;;;;8.73;1.90;;;;;;;;;;5097896;28;20436;-78
2023/01/12 03:25:54;;;;;;;6.07;1.50;;;;;;;;;;5077518;28;20444;-78
2023/01/12 03:28:20;;;;;;;2.73;2.33;;;;;;;;;;5098441;28;21162;-78
2023/01/12 03:30:52;;;;;;;13.70;3.53;;;;;;;;;;5082561;28;20463;-78
2023/01/12 03:33:18;;;;;;;7.10;2.00;;;;;;;;;;5075666;28;20429;-79
2023/01/12 03:35:51;;;;;;;3.10;1.83;;;;;;;;;;5083807;28;20424;-78
2023/01/12 03:38:26;;;;;;;9.63;2.13;;;;;;;;;;5079222;28;20471;-78
2023/01/12 03:41:00;;;;;;;1.77;1.60;;;;;;;;;;5078776;28;20502;-79
2023/01/12 03:43:52;;;;;;;2.60;1.57;;;;;;;;;;5067772;28;20417;-78
2023/01/12 03:46:26;;;;;;;2.43;1.83;;;;;;;;;;5088131;28;20500;-79
2023/01/12 03:48:54;;;;;;;7.50;2.70;;;;;;;;;;5085137;28;20423;-79
2023/01/12 03:51:23;;;;;;;7.40;1.60;;;;;;;;;;5078568;28;20526;-78
2023/01/12 03:53:50;;;;;;;6.50;1.70;;;;;;;;;;5094604;28;20859;-79
2023/01/12 03:56:18;;;;;;;1.90;1.33;;;;;;;;;;5085093;28;20443;-79
2023/01/12 03:58:44;;;;;;;4.40;1.27;;;;;;;;;;5093197;28;20550;-78
2023/01/12 04:01:10;;;;;;;9.03;1.90;;;;;;;;;;5084566;28;20436;-78
2023/01/12 04:03:36;;;;;;;3.60;1.40;;;;;;;;;;5082662;28;20421;-78
2023/01/12 04:06:02;;;;;;;3.87;1.53;;;;;;;;;;5079928;28;20496;-77
2023/01/12 04:08:28;;;;;;;5.00;2.47;;;;;;;;;;5076045;28;20436;-78
2023/01/12 04:10:55;;;;;;;4.33;1.67;;;;;;;;;;5077961;28;20876;-78
2023/01/12 04:13:21;;;;;;;3.40;2.20;;;;;;;;;;5094185;28;20961;-78
2023/01/12 04:15:47;;;;;;;2.83;1.37;;;;;;;;;;5098403;28;20470;-77
2023/01/12 04:18:13;;;;;;;4.70;1.77;;;;;;;;;;5074577;28;20464;-77
2023/01/12 04:20:40;;;;;;;7.30;2.07;;;;;;;;;;5078757;28;20496;-79
2023/01/12 04:23:06;;;;;;;13.90;1.57;;;;;;;;;;5083726;28;20458;-77
2023/01/12 04:25:32;;;;;;;2.13;1.30;;;;;;;;;;5083598;28;20444;-78
2023/01/12 04:28:02;;;;;;;4.83;1.73;;;;;;;;;;5073349;28;20900;-79
2023/01/12 04:30:30;;;;;;;4.50;1.30;;;;;;;;;;5093802;28;20847;-78
2023/01/12 04:32:56;;;;;;;5.20;2.07;;;;;;;;;;5086372;28;20485;-80
2023/01/12 04:35:23;;;;;;;3.37;3.07;;;;;;;;;;5082289;28;20425;-77
2023/01/12 04:37:49;;;;;;;6.13;2.50;;;;;;;;;;5088038;28;20490;-78
2023/01/12 04:40:16;;;;;;;1.10;1.10;;;;;;;;;;5102506;28;20889;-78
2023/01/12 04:43:00;;;;;;;4.60;1.40;;;;;;;;;;5083172;28;20432;-78
2023/01/12 04:45:31;;;;;;;10.03;1.77;;;;;;;;;;5081588;28;20864;-79
2023/01/12 04:48:01;;;;;;;3.27;1.97;;;;;;;;;;5078087;28;20815;-79
2023/01/12 04:50:27;;;;;;;8.73;2.20;;;;;;;;;;5077437;28;20435;-79
2023/01/12 04:52:53;;;;;;;1.00;0.93;;;;;;;;;;5086089;28;20458;-79
2023/01/12 04:55:20;;;;;;;4.43;1.47;;;;;;;;;;5091061;28;20496;-79
2023/01/12 04:57:46;;;;;;;3.80;1.70;;;;;;;;;;5072689;28;20547;-79
2023/01/12 05:00:12;;;;;;;5.90;1.40;;;;;;;;;;5081683;28;21021;-79
2023/01/12 05:02:38;;;;;;;1.60;1.33;;;;;;;;;;5072054;28;20808;-78
2023/01/12 05:05:05;;;;;;;5.20;1.07;;;;;;;;;;5093483;28;20435;-79
2023/01/12 05:07:31;;;;;;;3.93;1.40;;;;;;;;;;5092850;28;21065;-79
2023/01/12 05:12:41;;;;;;;3.30;1.30;;;;;;;;;;5087169;28;20545;-79
2023/01/12 05:15:08;;;;;;;7.10;1.47;;;;;;;;;;5089876;28;20455;-79
2023/01/12 05:17:34;;;;;;;6.00;1.70;;;;;;;;;;5089361;28;20467;-78
2023/01/12 05:20:00;;;;;;;5.70;2.03;;;;;;;;;;5088838;28;20432;-79
2023/01/12 05:22:26;;;;;;;5.20;2.13;;;;;;;;;;5087368;28;20489;-80
2023/01/12 05:24:52;;;;;;;4.20;1.37;;;;;;;;;;5093381;28;20949;-80
2023/01/12 05:27:18;;;;;;;5.50;1.20;;;;;;;;;;5103875;28;20937;-79
2023/01/12 05:29:44;;;;;;;1.03;0.90;;;;;;;;;;5081997;28;20459;-79
2023/01/12 05:32:10;;;;;;;2.30;1.17;;;;;;;;;;5095123;28;20428;-79
2023/01/12 05:34:36;;;;;;;4.00;1.40;;;;;;;;;;5103281;28;20430;-80
2023/01/12 05:37:02;;;;;;;3.70;1.37;;;;;;;;;;5090568;28;20485;-78
2023/01/12 05:39:28;;;;;;;1.30;0.80;;;;;;;;;;5086784;28;20459;-80
2023/01/12 05:44:38;;;;;;;2.83;1.37;;;;;;;;;;5071302;28;20455;-80
2023/01/12 05:47:04;;;;;;;3.93;1.10;;;;;;;;;;5103450;28;20434;-80
2023/01/12 05:49:30;;;;;;;2.17;1.00;;;;;;;;;;5084936;28;20458;-80
2023/01/12 05:51:56;;;;;;;1.53;1.43;;;;;;;;;;5089297;28;20691;-79
2023/01/12 05:54:23;;;;;;;2.83;0.80;;;;;;;;;;5090339;28;20579;-80
2023/01/12 05:56:49;;;;;;;2.37;1.07;;;;;;;;;;5100250;28;20421;-80
2023/01/12 05:59:15;;;;;;;0.87;0.70;;;;;;;;;;5088020;28;20845;-80
2023/01/12 06:01:41;;;;;;;1.07;1.07;;;;;;;;;;5076655;28;20437;-79
2023/01/12 06:04:07;;;;;;;6.43;2.10;;;;;;;;;;5074233;28;21040;-80
2023/01/12 06:06:33;;;;;;;1.00;0.90;;;;;;;;;;5074785;28;20544;-80
2023/01/12 06:09:00;;;;;;;0.90;0.90;;;;;;;;;;5070670;28;20467;-80
2023/01/12 06:14:11;;;;;;;3.50;1.17;;;;;;;;;;5086720;28;20836;-79
2023/01/12 06:16:38;;;;;;;5.10;2.20;;;;;;;;;;5091752;28;20503;-81
2023/01/12 06:19:04;;;;;;;3.47;1.10;;;;;;;;;;5093418;28;20872;-80
2023/01/12 06:21:31;;;;;;;3.67;1.30;;;;;;;;;;5074970;28;21014;-79
2023/01/12 06:23:57;;;;;;;0.73;0.73;;;;;;;;;;5085405;28;20887;-80
2023/01/12 06:26:23;;;;;;;1.40;0.40;;;;;;;;;;5086171;28;20720;-79
2023/01/12 06:28:49;;;;;;;4.03;1.00;;;;;;;;;;5084892;28;20432;-79
2023/01/12 06:31:15;;;;;;;0.40;0.40;;;;;;;;;;5083461;28;20442;-81
2023/01/12 06:33:41;;;;;;;3.60;0.83;;;;;;;;;;5078456;28;20459;-79
2023/01/12 06:36:07;;;;;;;3.23;1.10;;;;;;;;;;5090628;28;20432;-79
2023/01/12 06:38:33;;;;;;;1.03;0.67;;;;;;;;;;5081199;28;20490;-80
2023/01/12 06:41:03;;;;;;;2.20;1.20;;;;;;;;;;5091299;28;20906;-81
2023/01/12 06:43:29;;;;;;;1.63;1.60;;;;;;;;;;5090570;28;20580;-79
2023/01/12 06:45:55;;;;;;;1.30;0.90;;;;;;;;;;5086272;28;21050;-80
2023/01/12 06:48:24;;;;;;;4.80;0.87;;;;;;;;;;5101399;28;20836;-79
2023/01/12 06:50:50;;;;;;;7.20;0.80;;;;;;;;;;5071304;28;20433;-80
2023/01/12 06:53:16;;;;;;;2.23;1.80;;;;;;;;;;5093490;28;20438;-79
2023/01/12 06:55:48;;;;;;;0.60;0.60;;;;;;;;;;5082234;28;20425;-79
2023/01/12 06:58:14;;;;;;;1.50;1.33;;;;;;;;;;5087957;28;20462;-78
2023/01/12 07:00:39;;;;;;;1.03;1.00;;;;;;;;;;5100417;28;20431;-81
2023/01/12 07:03:05;;;;;;;0.70;0.70;;;;;;;;;;5099087;28;20508;-80
2023/01/12 07:05:31;;;;;;;0.90;0.90;;;;;;;;;;5082284;28;20429;-79
2023/01/12 07:08:01;;;;;;;4.03;1.03;;;;;;;;;;5089089;28;20439;-79
2023/01/12 07:10:27;;;;;;;2.17;1.17;;;;;;;;;;5083946;28;20998;-80
2023/01/12 07:12:54;;;;;;;2.77;1.40;;;;;;;;;;5079605;28;20482;-79
2023/01/12 07:15:20;;;;;;;1.53;0.87;;;;;;;;;;5073838;28;20473;-80
2023/01/12 07:17:46;;;;;;;4.10;1.73;;;;;;;;;;5073471;28;20467;-80
2023/01/12 07:20:12;;;;;;;1.80;1.30;;;;;;;;;;5068507;28;20416;-80
2023/01/12 07:22:38;;;;;;;1.70;1.00;;;;;;;;;;5070987;28;20471;-80
2023/01/12 07:25:04;;;;;;;4.00;1.23;;;;;;;;;;5087018;28;20404;-79
2023/01/12 07:27:30;;;;;;;4.13;1.17;;;;;;;;;;5091968;28;20848;-79
2023/01/12 07:29:56;;;;;;;2.30;1.03;;;;;;;;;;5078939;28;20732;-79
2023/01/12 07:32:25;;;;;;;1.50;0.83;;;;;;;;;;5082209;28;20940;-79
2023/01/12 07:34:51;;;;;;;1.43;1.33;;;;;;;;;;5084972;28;20416;-79
2023/01/12 07:37:17;;;;;;;0.70;0.70;;;;;;;;;;5091885;28;20443;-80
2023/01/12 07:39:43;;;;;;;1.40;1.20;;;;;;;;;;5071853;28;20593;-78
2023/01/12 07:42:24;;;;;;;1.87;1.10;;;;;;;;;;5084759;28;20447;-80
2023/01/12 07:44:50;;;;;;;2.17;1.10;;;;;;;;;;5074463;28;20441;-81
2023/01/12 07:47:16;;;;;;;2.37;1.00;;;;;;;;;;5081573;28;20448;-80
2023/01/12 07:50:07;;;;;;;6.00;1.57;;;;;;;;;;5076249;28;20530;-80
2023/01/12 07:52:36;;;;;;;1.73;1.43;;;;;;;;;;5070397;28;20444;-79
2023/01/12 07:55:02;;;;;;;1.60;1.50;;;;;;;;;;5084687;28;20456;-78
2023/01/12 07:57:28;;;;;;;1.00;1.00;;;;;;;;;;5080141;28;20458;-79
2023/01/12 07:59:54;;;;;;;1.40;0.57;;;;;;;;;;5098060;27;20474;-80
2023/01/12 08:02:20;;;;;;;1.13;1.00;;;;;;;;;;5080560;28;20432;-80
2023/01/12 08:04:47;;;;;;;2.40;1.20;;;;;;;;;;5087190;28;20976;-80
2023/01/12 08:07:13;;;;;;;1.90;0.80;;;;;;;;;;5092244;28;20668;-80
2023/01/12 08:09:39;;;;;;;1.63;1.50;;;;;;;;;;5074131;28;20437;-79
2023/01/12 08:12:05;;;;;;;0.80;0.80;;;;;;;;;;5081123;28;20590;-79
2023/01/12 08:14:36;;;;;;;3.03;1.70;;;;;;;;;;5076050;28;20468;-79
2023/01/12 08:17:03;;;;;;;4.63;1.30;;;;;;;;;;5073495;28;20438;-80
2023/01/12 08:19:36;;;;;;;5.40;1.37;;;;;;;;;;5088123;28;20479;-79
2023/01/12 08:22:03;;;;;;;2.17;1.30;;;;;;;;;;5081878;28;20471;-80
2023/01/12 08:24:31;;;;;;;5.40;0.87;;;;;;;;;;5085181;28;20423;-79
2023/01/12 08:26:59;;;;;;;4.53;0.60;;;;;;;;;;5092657;28;20440;-80
2023/01/12 08:29:32;;;;;;;1.80;1.70;;;;;;;;;;5073318;28;20861;-79
2023/01/12 08:32:00;;;;;;;1.20;1.20;;;;;;;;;;5099666;27;20438;-79
2023/01/12 08:34:27;;;;;;;1.17;0.80;;;;;;;;;;5075825;28;20400;-79
2023/01/12 08:36:56;;;;;;;0.70;0.70;;;;;;;;;;5083278;28;20874;-79
2023/01/12 08:39:22;;;;;;;2.23;1.30;;;;;;;;;;5091425;28;21058;-80
2023/01/12 08:41:50;;;;;;;2.63;1.40;;;;;;;;;;5104233;27;20703;-80
2023/01/12 08:44:17;;;;;;;5.33;1.13;;;;;;;;;;5070398;28;20417;-80
2023/01/12 08:46:47;;;;;;;3.20;1.20;;;;;;;;;;5073052;28;20514;-80
2023/01/12 08:49:13;;;;;;;1.23;0.63;;;;;;;;;;5081822;28;20964;-79
2023/01/12 08:51:39;;;;;;;4.97;1.03;;;;;;;;;;5089684;28;20893;-78
2023/01/12 08:54:06;;;;;;;1.37;0.77;;;;;;;;;;5078890;28;20455;-78
2023/01/12 08:56:33;;;;;;;1.17;1.17;;;;;;;;;;5090047;28;20473;-79
2023/01/12 08:58:59;;;;;;;2.00;0.63;;;;;;;;;;5075641;28;20547;-80
2023/01/12 09:01:26;;;;;;;1.77;1.00;;;;;;;;;;5091247;28;20456;-80
2023/01/12 09:03:55;;;;;;;2.33;1.03;;;;;;;;;;5086257;28;20796;-79
2023/01/12 09:06:28;;;;;;;2.00;0.97;;;;;;;;;;5102442;27;20584;-79
2023/01/12 09:08:59;;;;;;;0.83;0.57;;;;;;;;;;5087822;28;20459;-78
2023/01/12 09:11:26;;;;;;;0.97;0.80;;;;;;;;;;5077736;28;20438;-79
2023/01/12 09:13:52;;;;;;;0.50;0.50;;;;;;;;;;5083398;28;20517;-79
2023/01/12 09:16:18;;;;;;;0.97;0.47;;;;;;;;;;5086242;28;20825;-80
2023/01/12 09:18:45;;;;;;;2.73;0.60;;;;;;;;;;5079539;28;20630;-80
2023/01/12 09:21:14;;;;;;;1.00;1.00;;;;;;;;;;5089901;28;20639;-79
2023/01/12 09:23:40;;;;;;;2.43;0.90;;;;;;;;;;5089870;28;20787;-79
2023/01/12 09:26:17;;;;;;;0.73;0.70;;;;;;;;;;5082734;28;20437;-79
2023/01/12 09:28:44;;;;;;;1.30;1.30;;;;;;;;;;5089252;28;20511;-79
2023/01/12 09:31:15;;;;;;;0.50;0.50;;;;;;;;;;5087863;28;20432;-80
2023/01/12 09:33:41;;;;;;;0.60;0.60;;;;;;;;;;5096129;27;20881;-78
2023/01/12 09:36:15;;;;;;;4.03;2.10;;;;;;;;;;5089670;28;20439;-78
2023/01/12 09:38:42;;;;;;;1.37;1.17;;;;;;;;;;5090611;28;20486;-80
2023/01/12 09:47:27;;;;;;;0.63;0.63;;;;;;;;;;5086419;28;20470;-79
2023/01/12 09:50:01;;;;;;;2.00;1.80;;;;;;;;;;5096304;28;20686;-78
2023/01/12 09:52:32;;;;;;;1.23;0.50;;;;;;;;;;5082897;28;20597;-81
2023/01/12 09:54:58;;;;;;;0.70;0.70;;;;;;;;;;5091530;28;20508;-79
2023/01/12 09:57:29;;;;;;;1.17;0.80;;;;;;;;;;5085782;28;20545;-79
2023/01/12 09:59:55;;;;;;;1.23;1.23;;;;;;;;;;5085538;28;20527;-82
2023/01/12 10:02:21;;;;;;;0.50;0.50;;;;;;;;;;5101305;28;20522;-78
2023/01/12 10:04:49;;;;;;;0.80;0.80;;;;;;;;;;5088666;28;20974;-79
2023/01/12 10:07:16;;;;;;;1.23;0.70;;;;;;;;;;5092576;27;20512;-79
2023/01/12 10:09:42;;;;;;;5.70;1.57;;;;;;;;;;5082224;28;20431;-79
2023/01/12 10:12:27;;;;;;;0.70;0.70;;;;;;;;;;5083324;28;20436;-79
2023/01/12 10:15:07;;;;;;;4.53;1.60;;;;;;;;;;5086443;28;20459;-78
2023/01/12 10:17:52;;;;;;;3.20;0.60;;;;;;;;;;5089514;28;20539;-80
2023/01/12 10:20:37;;;;;;;1.67;0.50;;;;;;;;;;5091531;28;20918;-79
2023/01/12 10:23:06;;;;;;;2.53;0.63;;;;;;;;;;5093171;28;20442;-79
2023/01/12 10:25:33;;;;;;;1.23;1.13;;;;;;;;;;5083493;28;20415;-79
2023/01/12 10:28:00;;;;;;;0.70;0.70;;;;;;;;;;5093778;28;21096;-78
2023/01/12 10:30:29;;;;;;;0.90;0.90;;;;;;;;;;5085072;28;20432;-78
2023/01/12 10:32:55;;;;;;;5.10;0.80;;;;;;;;;;5085195;28;20797;-80
2023/01/12 10:35:22;;;;;;;1.13;0.47;;;;;;;;;;5076036;28;20509;-80
2023/01/12 10:37:53;;;;;;;1.23;0.60;;;;;;;;;;5087636;28;20517;-79
2023/01/12 10:40:37;;;;;;;2.20;1.00;;;;;;;;;;5079074;28;20570;-80
2023/01/12 10:43:18;;;;;;;0.93;0.93;;;;;;;;;;5082467;28;20520;-80
2023/01/12 10:46:03;;;;;;;0.40;0.40;;;;;;;;;;5078185;28;20435;-81
2023/01/12 10:48:29;;;;;;;2.63;1.00;;;;;;;;;;5084560;28;20454;-78
2023/01/12 10:50:57;;;;;;;0.63;0.63;;;;;;;;;;5099457;27;20505;-80
2023/01/12 10:53:28;;;;;;;0.97;0.47;;;;;;;;;;5085831;28;20420;-78
2023/01/12 10:55:55;;;;;;;0.70;0.70;;;;;;;;;;5080241;28;20722;-79
2023/01/12 10:58:30;;;;;;;3.70;0.87;;;;;;;;;;5088521;28;20502;-79
2023/01/12 11:00:56;;;;;;;1.27;1.00;;;;;;;;;;5074763;28;20415;-78
2023/01/12 11:03:32;;;;;;;7.13;1.40;;;;;;;;;;5078730;28;20766;-78
2023/01/12 11:06:27;;;;;;;0.50;0.50;;;;;;;;;;5079471;28;20442;-78
2023/01/12 11:08:54;;;;;;;0.90;0.90;;;;;;;;;;5068105;28;20425;-80
2023/01/12 11:11:29;;;;;;;2.00;1.03;;;;;;;;;;5082098;28;20790;-79
2023/01/12 11:13:56;;;;;;;0.70;0.70;;;;;;;;;;5080718;28;20443;-80
2023/01/12 11:16:24;;;;;;;5.50;0.70;;;;;;;;;;5085699;28;20427;-78
2023/01/12 11:18:58;;;;;;;0.70;0.60;;;;;;;;;;5081568;28;20574;-77
2023/01/12 11:21:27;;;;;;;0.60;0.60;;;;;;;;;;5078251;28;20461;-79
2023/01/12 11:24:01;;;;;;;1.87;0.90;;;;;;;;;;5103514;27;20945;-79
2023/01/12 11:26:29;;;;;;;0.80;0.80;;;;;;;;;;5094750;28;20432;-80
2023/01/12 11:28:58;;;;;;;1.17;0.40;;;;;;;;;;5086081;28;20432;-79
2023/01/12 11:31:24;;;;;;;0.63;0.63;;;;;;;;;;5086055;28;20600;-80
2023/01/12 11:34:08;;;;;;;1.23;0.80;;;;;;;;;;5092495;28;20760;-80
2023/01/12 11:36:38;;;;;;;2.00;1.10;;;;;;;;;;5084894;28;20786;-80
2023/01/12 11:39:04;;;;;;;2.60;0.60;;;;;;;;;;5088971;28;21064;-81
2023/01/12 11:44:39;;;;;;;5.13;0.90;;;;;;;;;;5074619;28;20466;-79
2023/01/12 11:47:05;;;;;;;0.47;0.47;;;;;;;;;;5078050;28;20495;-79
2023/01/12 11:49:31;;;;;;;0.70;0.70;;;;;;;;;;5078645;28;20451;-80
2023/01/12 11:51:58;;;;;;;0.50;0.50;;;;;;;;;;5096606;28;20432;-82
2023/01/12 11:54:29;;;;;;;0.73;0.73;;;;;;;;;;5079600;28;20523;-80
2023/01/12 11:57:04;;;;;;;5.80;1.13;;;;;;;;;;5085490;28;20900;-80
2023/01/12 11:59:49;;;;;;;1.53;1.07;;;;;;;;;;5092031;28;20614;-79
2023/01/12 12:02:31;;;;;;;0.77;0.77;;;;;;;;;;5083259;28;20915;-82
2023/01/12 12:05:06;;;;;;;1.47;0.90;;;;;;;;;;5096872;27;20951;-84
2023/01/12 12:07:32;;;;;;;0.90;0.90;;;;;;;;;;5095254;28;21001;-80
2023/01/12 12:10:04;;;;;;;0.70;0.70;;;;;;;;;;5082237;28;20555;-81
2023/01/12 12:12:33;;;;;;;0.73;0.70;;;;;;;;;;5082290;28;20437;-79
2023/01/12 12:15:31;;;;;;;2.20;0.67;;;;;;;;;;5103261;27;20497;-80
2023/01/12 12:18:08;;;;;;;0.77;0.77;;;;;;;;;;5069482;28;20456;-79
2023/01/12 12:20:40;;;;;;;0.80;0.80;;;;;;;;;;5101447;27;20427;-78
2023/01/12 12:23:25;;;;;;;1.30;1.20;;;;;;;;;;5094793;28;21089;-78
2023/01/12 12:26:30;;;;;;;1.60;1.17;;;;;;;;;;5079451;28;20978;-79
2023/01/12 12:29:07;;;;;;;1.37;1.03;;;;;;;;;;5083844;28;20478;-77
2023/01/12 12:31:58;;;;;;;1.90;1.00;;;;;;;;;;5080544;28;20775;-79
2023/01/12 12:34:37;;;;;;;1.80;0.80;;;;;;;;;;5081146;28;20447;-78
2023/01/12 12:37:27;;;;;;;1.37;1.00;;;;;;;;;;5095882;27;20818;-79
2023/01/12 12:40:15;;;;;;;0.87;0.60;;;;;;;;;;5081512;28;20584;-79
2023/01/12 12:45:26;;;;;;;1.37;1.27;;;;;;;;;;5078583;28;20407;-80
2023/01/12 12:47:57;;;;;;;3.80;1.10;;;;;;;;;;5086038;28;20404;-80
2023/01/12 12:50:31;;;;;;;2.73;0.97;;;;;;;;;;5092815;28;20447;-79
2023/01/12 12:53:16;;;;;;;2.93;0.93;;;;;;;;;;5095234;28;20417;-79
2023/01/12 12:55:48;;;;;;;0.87;0.80;;;;;;;;;;5084667;28;21137;-78
2023/01/12 12:58:20;;;;;;;1.00;0.60;;;;;;;;;;5083822;28;21043;-80
2023/01/12 13:00:50;;;;;;;1.90;1.10;;;;;;;;;;5097773;27;20440;-82
2023/01/12 13:03:34;;;;;;;5.70;0.60;;;;;;;;;;5106706;27;20439;-79
2023/01/12 13:06:19;;;;;;;0.50;0.50;;;;;;;;;;5082191;28;20781;-80
2023/01/12 13:08:47;;;;;;;0.30;0.30;;;;;;;;;;5102440;27;20792;-81
2023/01/12 13:11:23;;;;;;;0.77;0.60;;;;;;;;;;5085622;28;20431;-79
2023/01/12 13:14:18;;;;;;;1.50;0.90;;;;;;;;;;5082847;28;20549;-81
2023/01/12 13:16:45;;;;;;;0.50;0.50;;;;;;;;;;5083087;28;20898;-81
2023/01/12 13:19:12;;;;;;;0.80;0.80;;;;;;;;;;5095759;27;20963;-80
2023/01/12 13:21:44;;;;;;;0.73;0.73;;;;;;;;;;5099835;28;20515;-79
2023/01/12 13:24:20;;;;;;;;;;;;;;;;;;;;;
2023/01/12 13:26:51;;;;;;;0.90;0.90;;;;;;;;;;5077762;28;20409;-79
2023/01/12 13:29:25;;;;;;;0.50;0.50;;;;;;;;;;5077856;28;20442;-78
2023/01/12 13:31:53;;;;;;;0.67;0.67;;;;;;;;;;5079934;28;20432;-80
2023/01/12 13:34:28;;;;;;;0.90;0.90;;;;;;;;;;5083179;28;20922;-77
2023/01/12 13:37:13;;;;;;;1.33;1.10;;;;;;;;;;5079421;28;20793;-77
2023/01/12 13:39:45;;;;;;;0.97;0.40;;;;;;;;;;5083176;28;20472;-79
2023/01/12 13:45:01;;;;;;;0.50;0.50;;;;;;;;;;5084599;28;20479;-78
2023/01/12 13:47:31;;;;;;;1.40;0.90;;;;;;;;;;5091251;28;20420;-78
2023/01/12 13:49:59;;;;;;;0.87;0.60;;;;;;;;;;5094761;28;20432;-84
2023/01/12 13:52:35;;;;;;;0.50;0.50;;;;;;;;;;5083539;28;20880;-78
2023/01/12 13:55:02;;;;;;;0.60;0.60;;;;;;;;;;5078344;28;20440;-79
2023/01/12 13:57:29;;;;;;;1.10;1.10;;;;;;;;;;5080722;28;20425;-79
2023/01/12 14:00:03;;;;;;;3.40;2.13;;;;;;;;;;5082380;28;20437;-80
2023/01/12 14:02:31;;;;;;;0.77;0.33;;;;;;;;;;5081619;28;20462;-80
2023/01/12 14:05:12;;;;;;;0.70;0.70;;;;;;;;;;5083368;28;20439;-79
2023/01/12 14:07:53;;;;;;;0.60;0.60;;;;;;;;;;5079694;28;20957;-79
2023/01/12 14:10:25;;;;;;;0.43;0.43;;;;;;;;;;5072985;28;20432;-77
2023/01/12 14:12:56;;;;;;;0.40;0.40;;;;;;;;;;5091375;28;20542;-78
2023/01/12 14:18:47;;;;;;;0.80;0.80;;;;;;;;;;5078649;28;20864;-78
2023/01/12 14:21:24;;;;;;;0.40;0.40;;;;;;;;;;5075717;28;20410;-79
2023/01/12 14:23:50;;;;;;;2.00;0.90;;;;;;;;;;5083937;28;20933;-79
2023/01/12 14:26:21;;;;;;;1.47;0.77;;;;;;;;;;5076172;28;20963;-79
2023/01/12 14:28:49;;;;;;;0.50;0.50;;;;;;;;;;5068422;28;21012;-77
2023/01/12 14:31:38;;;;;;;1.83;0.60;;;;;;;;;;5077712;28;20427;-78
2023/01/12 14:34:04;;;;;;;2.83;0.50;;;;;;;;;;5086595;28;20423;-77
2023/01/12 14:36:36;;;;;;;0.43;0.43;;;;;;;;;;5093074;28;20399;-77
2023/01/12 14:39:07;;;;;;;0.70;0.70;;;;;;;;;;5085851;28;20462;-77
2023/01/12 14:47:28;;;;;;;2.07;0.80;;;;;;;;;;5081768;28;20863;-76
2023/01/12 14:49:54;;;;;;;1.03;0.90;;;;;;;;;;5086643;28;20439;-79
2023/01/12 14:52:32;;;;;;;2.63;0.40;;;;;;;;;;5107970;27;20421;-78
2023/01/12 14:55:19;;;;;;;0.50;0.50;;;;;;;;;;5081244;28;20427;-77
2023/01/12 14:57:56;;;;;;;0.47;0.47;;;;;;;;;;5082154;28;20443;-78
2023/01/12 15:00:22;;;;;;;0.87;0.73;;;;;;;;;;5085986;28;20536;-79
2023/01/12 15:02:52;;;;;;;0.80;0.80;;;;;;;;;;5089569;28;20792;-79
2023/01/12 15:05:21;;;;;;;0.90;0.90;;;;;;;;;;5107455;27;21031;-80
2023/01/12 15:07:56;;;;;;;1.23;0.90;;;;;;;;;;5081358;28;20848;-78
2023/01/12 15:10:36;;;;;;;0.70;0.70;;;;;;;;;;5097465;27;20978;-80
2023/01/12 15:13:18;;;;;;;0.90;0.90;;;;;;;;;;5087475;28;20427;-79
2023/01/12 15:26:44;;;;;;;1.20;0.97;;;;;;;;;;5087165;28;20398;-79
2023/01/12 15:29:10;;;;;;;0.87;0.70;;;;;;;;;;5086616;28;20432;-79
2023/01/12 15:31:37;;;;;;;1.33;0.60;;;;;;;;;;5090387;28;20400;-79
2023/01/12 15:34:04;;;;;;;0.40;0.40;;;;;;;;;;5084397;28;20764;-79
2023/01/12 15:36:30;;;;;;;0.50;0.50;;;;;;;;;;5086374;28;20409;-78
2023/01/12 15:38:56;;;;;;;0.80;0.80;;;;;;;;;;5088535;28;20482;-80
2023/01/12 15:44:12;;;;;;;0.73;0.57;;;;;;;;;;5080675;28;20937;-79
2023/01/12 15:46:38;;;;;;;0.50;0.50;;;;;;;;;;5088419;28;20408;-80
2023/01/12 15:49:05;;;;;;;0.53;0.53;;;;;;;;;;5083666;28;20444;-82
2023/01/12 15:51:32;;;;;;;1.33;0.30;;;;;;;;;;5080029;28;20861;-78
2023/01/12 15:53:58;;;;;;;0.70;0.70;;;;;;;;;;5090009;28;20844;-80
2023/01/12 15:56:24;;;;;;;1.33;0.50;;;;;;;;;;5083445;28;20412;-81
2023/01/12 15:58:50;;;;;;;0.60;0.60;;;;;;;;;;5102609;28;20997;-81
2023/01/12 16:01:18;;;;;;;0.40;0.40;;;;;;;;;;5088700;28;20419;-80